Karluk, AK

2:19 PM AKDT on October 21, 2014 (GMT -0800)
Akhiok AP, Akhiok, AK | Change Station
CLOSE
Current Station
Airport
Location: Akhiok AP, Akhiok, AK,
Elevation: 43 ft
Nearby Weather Stations

Elev 43 ft 56.94 °N, 154.18 °W | Updated 23 minutes ago

Partly Cloudy
Partly Cloudy
40 °F
Feels Like 35 °F
N
7
Wind Variable Wind from East

Today
High -- | Low -- °F
--% Chance of Precip.
Yesterday
High -- | Low -- °F
Precip. -- in
9:06 AM 6:57 PM
Waning Crescent, 4% visible
Pressure 29.26 in
Visibility 10.0 miles
Clouds Few 2800 ft
Windchill 35 °F
Dew Point 29 °F
Humidity 65%
Rainfall 0.02 in
Snow Depth Not available.
UV 2 out of 12
Pollen Not available.
Air Quality Not available.
Flu Activity Not available.
METAR PAKH 212156Z AUTO 09006KT 10SM FEW028 04/M02 A2925 RMK AO2 TSNO T00441016 SLP909 $

More Conditions Fewer Conditions

Pressure 29.26 in
Visibility 10.0 miles
Clouds Few 2800 ft
Windchill 35 °F
Dew Point 29 °F
Humidity 65%
Rainfall 0.02 in
Snow Depth Not available.
UV 2 out of 12
Pollen Not available.
Air Quality Not available.
Flu Activity Not available.
METAR PAKH 212156Z AUTO 09006KT 10SM FEW028 04/M02 A2925 RMK AO2 TSNO T00441016 SLP909 $

More Conditions Fewer Conditions

10-Day Weather Forecast

Almanac

Astronomy

Oct. 21, 2014 Rise Set
Actual Time 9:06 AM AKDT 6:57 PM AKDT
Civil Twilight 8:26 AM AKDT 7:37 PM AKDT
Nautical Twilight 7:40 AM AKDT 8:22 PM AKDT
Astronomical Twilight 6:56 AM AKDT 9:07 PM AKDT
Moon 6:36 AM AKDT 6:16 PM AKDT
Length of Visible Light 11h 11m
Length of Day
9h 51m
Tomorrow will be 4m 47s shorter.
Waning Crescent, 4% of the Moon is Illuminated
Today
Waning Crescent
Oct 23
New
Oct 30
First Quarter
Nov 6
Full
Nov 14
Last Quarter

Today's Extremes

State Highs State Lows

Community

WunderPhotos

Upload Photos

1,763,798 photos uploaded!

Nearby

Snow Depth

Station Depth Elevation
Mcneil Canyon 1 in 1320 ft
Nuka Glacier 164 in 1250 ft
MF Bradley River 0 in 2300 ft
Cooper Lake 0 in 1200 ft
Grouse Creek Divide 0 in 700 ft

Earthquake Activity

City Distance Mag. Time & Date
No recent earthquake activity has been reported nearby.
Minimum magnitude displayed is 2.5.

Coastal Water Temperatures

Place Temperature
No Stations Reporting

Nearby Weather Stations